sensor_id;sensor_type;location;lat;lon;timestamp;P1;durP1;ratioP1;P2;durP2;ratioP2
43837;SDS011;29493;46.516;6.638;2022-08-14T19:01:42;7.82;;;2.78;;
43837;SDS011;29493;46.516;6.638;2022-08-14T19:04:08;4.40;;;2.10;;
43837;SDS011;29493;46.516;6.638;2022-08-14T19:07:16;5.03;;;2.33;;
43837;SDS011;29493;46.516;6.638;2022-08-14T19:09:50;4.95;;;2.58;;
43837;SDS011;29493;46.516;6.638;2022-08-14T19:15:30;5.43;;;2.17;;
43837;SDS011;29493;46.516;6.638;2022-08-14T19:17:58;8.10;;;2.42;;
43837;SDS011;29493;46.516;6.638;2022-08-14T19:20:24;4.60;;;2.40;;
43837;SDS011;29493;46.516;6.638;2022-08-14T19:22:52;6.72;;;2.22;;
43837;SDS011;29493;46.516;6.638;2022-08-14T19:28:17;5.05;;;2.30;;
43837;SDS011;29493;46.516;6.638;2022-08-14T19:30:46;4.25;;;2.38;;
43837;SDS011;29493;46.516;6.638;2022-08-14T19:36:13;4.13;;;2.10;;
43837;SDS011;29493;46.516;6.638;2022-08-14T19:41:13;4.05;;;2.42;;
43837;SDS011;29493;46.516;6.638;2022-08-14T19:43:40;6.93;;;3.20;;
43837;SDS011;29493;46.516;6.638;2022-08-14T19:46:07;7.60;;;3.17;;
43837;SDS011;29493;46.516;6.638;2022-08-14T19:48:35;7.20;;;3.17;;
43837;SDS011;29493;46.516;6.638;2022-08-14T19:51:02;6.67;;;3.13;;
43837;SDS011;29493;46.516;6.638;2022-08-14T19:53:29;4.82;;;2.92;;
43837;SDS011;29493;46.516;6.638;2022-08-14T19:55:56;4.97;;;2.63;;
43837;SDS011;29493;46.516;6.638;2022-08-14T19:58:40;5.47;;;2.78;;
43837;SDS011;29493;46.516;6.638;2022-08-14T20:01:07;6.17;;;2.83;;
43837;SDS011;29493;46.516;6.638;2022-08-14T20:03:46;5.18;;;2.83;;
43837;SDS011;29493;46.516;6.638;2022-08-14T20:06:17;6.00;;;3.03;;
43837;SDS011;29493;46.516;6.638;2022-08-14T20:08:43;5.78;;;3.10;;
43837;SDS011;29493;46.516;6.638;2022-08-14T20:11:26;5.25;;;2.97;;
43837;SDS011;29493;46.516;6.638;2022-08-14T20:14:30;4.73;;;2.60;;
43837;SDS011;29493;46.516;6.638;2022-08-14T20:16:55;6.60;;;3.05;;
43837;SDS011;29493;46.516;6.638;2022-08-14T20:19:29;6.35;;;2.92;;
43837;SDS011;29493;46.516;6.638;2022-08-14T20:22:02;5.95;;;2.92;;
43837;SDS011;29493;46.516;6.638;2022-08-14T20:35:41;5.68;;;2.58;;
43837;SDS011;29493;46.516;6.638;2022-08-14T20:41:06;4.90;;;2.30;;
43837;SDS011;29493;46.516;6.638;2022-08-14T20:43:36;5.03;;;2.60;;
43837;SDS011;29493;46.516;6.638;2022-08-14T20:51:42;5.15;;;2.90;;
43837;SDS011;29493;46.516;6.638;2022-08-14T20:54:13;5.93;;;3.00;;
43837;SDS011;29493;46.516;6.638;2022-08-14T20:56:46;6.00;;;2.85;;
43837;SDS011;29493;46.516;6.638;2022-08-14T21:04:20;5.40;;;3.00;;
43837;SDS011;29493;46.516;6.638;2022-08-14T21:06:48;4.40;;;2.67;;
43837;SDS011;29493;46.516;6.638;2022-08-14T21:09:14;4.70;;;2.60;;
43837;SDS011;29493;46.516;6.638;2022-08-14T21:11:43;4.95;;;2.60;;
43837;SDS011;29493;46.516;6.638;2022-08-14T21:14:15;5.23;;;2.77;;
43837;SDS011;29493;46.516;6.638;2022-08-14T21:16:41;5.70;;;2.70;;
43837;SDS011;29493;46.516;6.638;2022-08-14T21:19:08;5.18;;;2.80;;
43837;SDS011;29493;46.516;6.638;2022-08-14T21:21:34;4.70;;;2.50;;
43837;SDS011;29493;46.516;6.638;2022-08-14T21:23:59;5.43;;;2.60;;
43837;SDS011;29493;46.516;6.638;2022-08-14T21:26:26;4.23;;;2.20;;
43837;SDS011;29493;46.516;6.638;2022-08-14T21:28:58;5.43;;;2.47;;
43837;SDS011;29493;46.516;6.638;2022-08-14T21:31:24;5.32;;;2.20;;
43837;SDS011;29493;46.516;6.638;2022-08-14T21:33:50;4.50;;;2.40;;
43837;SDS011;29493;46.516;6.638;2022-08-14T21:36:16;5.37;;;2.63;;
43837;SDS011;29493;46.516;6.638;2022-08-14T21:38:42;5.15;;;2.05;;
43837;SDS011;29493;46.516;6.638;2022-08-14T21:41:11;3.92;;;2.60;;
43837;SDS011;29493;46.516;6.638;2022-08-14T21:43:55;4.65;;;2.50;;
43837;SDS011;29493;46.516;6.638;2022-08-14T21:46:31;5.77;;;3.13;;
43837;SDS011;29493;46.516;6.638;2022-08-14T21:49:10;5.80;;;2.90;;
43837;SDS011;29493;46.516;6.638;2022-08-14T21:51:43;5.60;;;2.45;;
43837;SDS011;29493;46.516;6.638;2022-08-14T21:54:11;4.18;;;2.30;;
43837;SDS011;29493;46.516;6.638;2022-08-14T21:56:39;4.00;;;2.30;;
43837;SDS011;29493;46.516;6.638;2022-08-14T21:59:13;4.27;;;2.33;;
43837;SDS011;29493;46.516;6.638;2022-08-14T22:01:42;4.30;;;2.50;;
43837;SDS011;29493;46.516;6.638;2022-08-14T22:04:08;6.22;;;3.35;;
43837;SDS011;29493;46.516;6.638;2022-08-14T22:06:35;5.47;;;2.47;;
43837;SDS011;29493;46.516;6.638;2022-08-14T22:09:05;5.05;;;2.60;;
43837;SDS011;29493;46.516;6.638;2022-08-14T22:11:31;3.75;;;2.30;;
43837;SDS011;29493;46.516;6.638;2022-08-14T22:13:59;5.18;;;2.22;;
43837;SDS011;29493;46.516;6.638;2022-08-14T22:16:25;3.85;;;2.30;;
43837;SDS011;29493;46.516;6.638;2022-08-14T22:18:51;4.10;;;2.42;;
43837;SDS011;29493;46.516;6.638;2022-08-14T22:21:19;4.97;;;2.60;;
43837;SDS011;29493;46.516;6.638;2022-08-14T22:23:46;5.18;;;2.70;;
43837;SDS011;29493;46.516;6.638;2022-08-14T22:26:13;5.03;;;2.58;;
43837;SDS011;29493;46.516;6.638;2022-08-14T22:28:39;4.35;;;2.20;;
43837;SDS011;29493;46.516;6.638;2022-08-14T22:31:10;4.70;;;2.60;;
43837;SDS011;29493;46.516;6.638;2022-08-14T22:33:38;4.53;;;2.30;;
43837;SDS011;29493;46.516;6.638;2022-08-14T22:36:04;4.82;;;2.60;;
43837;SDS011;29493;46.516;6.638;2022-08-14T22:38:49;5.88;;;2.47;;
43837;SDS011;29493;46.516;6.638;2022-08-14T22:41:15;4.35;;;2.50;;
43837;SDS011;29493;46.516;6.638;2022-08-14T22:43:41;5.63;;;2.80;;
43837;SDS011;29493;46.516;6.638;2022-08-14T22:46:08;4.73;;;2.50;;
43837;SDS011;29493;46.516;6.638;2022-08-14T22:48:34;4.13;;;2.50;;
43837;SDS011;29493;46.516;6.638;2022-08-14T22:50:59;3.85;;;2.35;;
43837;SDS011;29493;46.516;6.638;2022-08-14T22:53:25;5.10;;;2.60;;
43837;SDS011;29493;46.516;6.638;2022-08-14T22:55:51;5.13;;;3.20;;
43837;SDS011;29493;46.516;6.638;2022-08-14T22:58:17;5.75;;;2.60;;
43837;SDS011;29493;46.516;6.638;2022-08-14T23:00:43;5.13;;;2.83;;
43837;SDS011;29493;46.516;6.638;2022-08-14T23:03:12;4.93;;;2.60;;
43837;SDS011;29493;46.516;6.638;2022-08-14T23:05:39;5.05;;;2.88;;
43837;SDS011;29493;46.516;6.638;2022-08-14T23:08:08;4.32;;;2.67;;
43837;SDS011;29493;46.516;6.638;2022-08-14T23:10:36;4.35;;;2.90;;
43837;SDS011;29493;46.516;6.638;2022-08-14T23:13:04;5.75;;;3.15;;
43837;SDS011;29493;46.516;6.638;2022-08-14T23:15:32;5.60;;;3.28;;
43837;SDS011;29493;46.516;6.638;2022-08-14T23:17:59;5.47;;;3.00;;
43837;SDS011;29493;46.516;6.638;2022-08-14T23:20:26;4.70;;;3.17;;
43837;SDS011;29493;46.516;6.638;2022-08-14T23:22:53;4.60;;;2.95;;
43837;SDS011;29493;46.516;6.638;2022-08-14T23:25:23;5.40;;;3.25;;
43837;SDS011;29493;46.516;6.638;2022-08-14T23:27:52;5.93;;;3.08;;
43837;SDS011;29493;46.516;6.638;2022-08-14T23:30:19;6.32;;;3.10;;
43837;SDS011;29493;46.516;6.638;2022-08-14T23:32:50;5.95;;;3.20;;
43837;SDS011;29493;46.516;6.638;2022-08-14T23:35:19;6.53;;;3.13;;
43837;SDS011;29493;46.516;6.638;2022-08-14T23:38:00;5.55;;;3.10;;
43837;SDS011;29493;46.516;6.638;2022-08-14T23:40:26;5.28;;;2.90;;
43837;SDS011;29493;46.516;6.638;2022-08-14T23:42:55;4.72;;;2.92;;
43837;SDS011;29493;46.516;6.638;2022-08-14T23:45:36;5.40;;;3.28;;
43837;SDS011;29493;46.516;6.638;2022-08-14T23:48:06;5.22;;;3.17;;
43837;SDS011;29493;46.516;6.638;2022-08-14T23:50:34;5.47;;;3.15;;
43837;SDS011;29493;46.516;6.638;2022-08-14T23:53:01;5.68;;;3.20;;
43837;SDS011;29493;46.516;6.638;2022-08-14T23:55:29;4.85;;;3.20;;
43837;SDS011;29493;46.516;6.638;2022-08-14T23:57:58;5.78;;;3.70;;
